createdAt,value
2022-11-14T00:00:33.501Z,100.00
2022-11-14T00:03:02.107Z,100.00
2022-11-14T00:05:30.582Z,100.00
2022-11-14T00:07:58.834Z,100.00
2022-11-14T00:10:26.806Z,100.00
2022-11-14T00:12:54.483Z,100.00
2022-11-14T00:15:23.596Z,100.00
2022-11-14T00:17:51.257Z,100.00
2022-11-14T00:20:19.088Z,100.00
2022-11-14T00:22:46.790Z,100.00
2022-11-14T00:25:14.482Z,100.00
2022-11-14T00:27:42.191Z,100.00
2022-11-14T00:30:10.512Z,100.00
2022-11-14T00:32:39.561Z,100.00
2022-11-14T00:35:09.102Z,100.00
2022-11-14T00:37:36.988Z,100.00
2022-11-14T00:40:05.476Z,100.00
2022-11-14T00:42:34.599Z,100.00
2022-11-14T00:45:02.296Z,100.00
2022-11-14T00:47:29.955Z,100.00
2022-11-14T00:49:59.057Z,100.00
2022-11-14T00:52:26.768Z,100.00
2022-11-14T00:54:54.617Z,100.00
2022-11-14T00:57:22.363Z,100.00
2022-11-14T00:59:50.050Z,100.00
2022-11-14T01:02:17.792Z,100.00
2022-11-14T01:04:45.518Z,100.00
2022-11-14T01:07:14.616Z,100.00
2022-11-14T01:09:42.348Z,100.00
2022-11-14T01:12:10.076Z,100.00
2022-11-14T01:14:37.716Z,100.00
2022-11-14T01:17:05.406Z,100.00
2022-11-14T01:19:33.116Z,100.00
2022-11-14T01:22:05.897Z,100.00
2022-11-14T01:24:35.851Z,100.00
2022-11-14T01:27:03.567Z,100.00
2022-11-14T01:29:31.364Z,100.00
2022-11-14T01:31:59.121Z,100.00
2022-11-14T01:34:26.794Z,100.00
2022-11-14T01:36:54.450Z,100.00
2022-11-14T01:39:22.355Z,100.00
2022-11-14T01:41:51.391Z,100.00
2022-11-14T01:44:42.340Z,100.00
2022-11-14T01:47:11.934Z,100.00
2022-11-14T01:49:42.513Z,100.00
2022-11-14T01:52:12.922Z,100.00
2022-11-14T01:54:46.367Z,100.00
2022-11-14T01:57:19.427Z,100.00
2022-11-14T01:59:50.985Z,100.00
2022-11-14T02:02:21.247Z,100.00
2022-11-14T02:04:52.877Z,100.00
2022-11-14T02:07:20.844Z,100.00
2022-11-14T02:09:50.559Z,100.00
2022-11-14T02:12:21.281Z,100.00
2022-11-14T02:14:52.373Z,100.00
2022-11-14T02:17:30.159Z,100.00
2022-11-14T02:20:16.520Z,100.00
2022-11-14T02:22:44.202Z,100.00
2022-11-14T02:25:14.394Z,100.00
2022-11-14T02:27:42.894Z,100.00
2022-11-14T02:30:13.806Z,100.00
2022-11-14T02:35:30.609Z,100.00
2022-11-14T02:37:58.342Z,100.00
2022-11-14T02:40:26.021Z,100.00
2022-11-14T02:42:53.714Z,100.00
2022-11-14T02:45:21.846Z,100.00
2022-11-14T02:47:49.771Z,100.00
2022-11-14T02:50:18.095Z,100.00
2022-11-14T02:52:47.139Z,100.00
2022-11-14T02:55:14.835Z,100.00
2022-11-14T02:57:42.490Z,100.00
2022-11-14T03:00:14.811Z,100.00
2022-11-14T03:02:42.851Z,100.00
2022-11-14T03:05:10.815Z,100.00
2022-11-14T03:07:38.615Z,100.00
2022-11-14T03:10:09.571Z,100.00
2022-11-14T03:12:37.593Z,100.00
2022-11-14T03:15:06.237Z,100.00
2022-11-14T03:17:34.391Z,100.00
2022-11-14T03:20:02.492Z,100.00
2022-11-14T03:22:30.262Z,100.00
2022-11-14T03:24:58.038Z,100.00
2022-11-14T03:27:27.104Z,100.00
2022-11-14T03:29:54.797Z,100.00
2022-11-14T03:32:22.620Z,100.00
2022-11-14T03:34:50.361Z,100.00
2022-11-14T03:37:18.064Z,100.00
2022-11-14T03:39:45.764Z,100.00
2022-11-14T03:42:13.534Z,100.00
2022-11-14T03:44:42.694Z,100.00
2022-11-14T03:47:10.460Z,100.00
2022-11-14T03:49:38.172Z,100.00
2022-11-14T03:52:06.055Z,100.00
2022-11-14T03:54:33.786Z,100.00
2022-11-14T03:57:01.524Z,100.00
2022-11-14T03:59:29.215Z,100.00
2022-11-14T04:01:58.209Z,100.00
2022-11-14T04:04:26.071Z,100.00
2022-11-14T04:06:53.747Z,100.00
2022-11-14T04:09:21.490Z,100.00
2022-11-14T04:11:49.139Z,100.00
2022-11-14T04:14:16.857Z,100.00
2022-11-14T04:16:44.514Z,100.00
2022-11-14T04:19:13.497Z,100.00
2022-11-14T04:21:41.273Z,100.00
2022-11-14T04:24:11.153Z,100.00
2022-11-14T04:26:39.130Z,100.00
2022-11-14T04:29:06.818Z,100.00
2022-11-14T04:31:34.500Z,100.00
2022-11-14T04:34:02.349Z,100.00
2022-11-14T04:36:31.411Z,100.00
2022-11-14T04:38:59.280Z,100.00
2022-11-14T04:41:27.025Z,100.00
2022-11-14T04:43:54.773Z,100.00
2022-11-14T04:46:22.834Z,100.00
2022-11-14T04:48:50.528Z,100.00
2022-11-14T04:51:18.630Z,100.00
2022-11-14T04:53:47.657Z,100.00
2022-11-14T04:56:15.417Z,100.00
2022-11-14T04:58:43.575Z,100.00
2022-11-14T05:01:11.866Z,100.00
2022-11-14T05:03:39.537Z,100.00
2022-11-14T05:06:07.583Z,100.00
2022-11-14T05:08:35.853Z,100.00
2022-11-14T05:11:04.919Z,100.00
2022-11-14T05:13:32.608Z,100.00
2022-11-14T05:16:01.003Z,100.00
2022-11-14T05:18:29.084Z,100.00
2022-11-14T05:20:59.441Z,100.00
2022-11-14T05:23:27.779Z,100.00
2022-11-14T05:26:05.698Z,100.00
2022-11-14T05:28:33.943Z,100.00
2022-11-14T05:31:02.900Z,100.00
2022-11-14T05:33:30.820Z,100.00
2022-11-14T05:36:03.299Z,100.00
2022-11-14T05:38:31.298Z,100.00
2022-11-14T05:40:59.265Z,100.00
2022-11-14T05:43:30.606Z,100.00
2022-11-14T05:46:01.649Z,100.00
2022-11-14T05:48:30.550Z,100.00
2022-11-14T05:50:59.212Z,100.00
2022-11-14T05:53:28.320Z,100.00
2022-11-14T05:55:56.608Z,100.00
2022-11-14T05:58:24.280Z,100.00
2022-11-14T06:00:54.555Z,100.00
2022-11-14T06:03:22.326Z,100.00
2022-11-14T06:05:50.002Z,100.00
2022-11-14T06:08:17.715Z,100.00
2022-11-14T06:10:45.471Z,100.00
2022-11-14T06:13:13.166Z,100.00
2022-11-14T06:15:41.704Z,100.00
2022-11-14T06:18:10.706Z,100.00
2022-11-14T06:20:38.450Z,100.00
2022-11-14T06:23:06.121Z,100.00
2022-11-14T06:25:33.867Z,100.00
2022-11-14T06:28:01.520Z,100.00
2022-11-14T06:30:29.243Z,100.00
2022-11-14T06:32:59.277Z,100.00
2022-11-14T06:35:28.684Z,100.00
2022-11-14T06:37:56.381Z,100.00
2022-11-14T06:40:24.078Z,100.00
2022-11-14T06:42:51.764Z,100.00
2022-11-14T06:45:19.485Z,100.00
2022-11-14T06:47:47.186Z,100.00
2022-11-14T06:50:15.267Z,100.00
2022-11-14T06:52:44.279Z,100.00
2022-11-14T06:55:11.937Z,100.00
2022-11-14T06:57:39.651Z,100.00
2022-11-14T07:00:10.626Z,100.00
2022-11-14T07:02:38.426Z,100.00
2022-11-14T07:05:06.860Z,100.00
2022-11-14T07:07:34.647Z,100.00
2022-11-14T07:10:03.780Z,100.00
2022-11-14T07:12:32.771Z,100.00
2022-11-14T07:15:00.505Z,100.00
2022-11-14T07:17:31.369Z,100.00
2022-11-14T07:19:59.261Z,100.00
2022-11-14T07:22:26.993Z,100.00
2022-11-14T07:24:54.660Z,100.00
2022-11-14T07:27:23.748Z,100.00
2022-11-14T07:29:51.460Z,100.00
2022-11-14T07:32:19.171Z,100.00
2022-11-14T07:34:46.882Z,100.00
2022-11-14T07:37:14.568Z,100.00
2022-11-14T07:39:42.371Z,100.00
2022-11-14T07:42:10.112Z,100.00
2022-11-14T07:44:39.252Z,100.00
2022-11-14T07:47:06.966Z,100.00
2022-11-14T07:49:35.169Z,100.00
2022-11-14T07:52:03.003Z,100.00
2022-11-14T07:54:30.707Z,100.00
2022-11-14T07:56:58.428Z,100.00
2022-11-14T07:59:26.185Z,100.00
2022-11-14T08:01:55.313Z,100.00
2022-11-14T08:04:23.609Z,100.00
2022-11-14T08:06:51.403Z,100.00
2022-11-14T08:09:19.191Z,100.00
2022-11-14T08:11:49.681Z,100.00
2022-11-14T08:14:17.431Z,100.00
2022-11-14T08:16:45.114Z,100.00
2022-11-14T08:19:16.952Z,100.00
2022-11-14T08:21:44.912Z,100.00
2022-11-14T08:24:12.634Z,100.00
2022-11-14T08:26:40.621Z,100.00
2022-11-14T08:29:08.288Z,100.00
2022-11-14T08:31:36.044Z,100.00
2022-11-14T08:34:03.728Z,100.00
2022-11-14T08:36:32.812Z,100.00
2022-11-14T08:39:02.203Z,100.00
2022-11-14T08:41:30.216Z,100.00
2022-11-14T08:43:58.001Z,100.00
2022-11-14T08:46:25.709Z,99.88
2022-11-14T08:48:53.433Z,99.62
2022-11-14T08:51:21.199Z,99.23
2022-11-14T08:53:52.266Z,98.45
2022-11-14T08:56:20.055Z,98.69
2022-11-14T08:58:47.837Z,98.63
2022-11-14T09:01:15.581Z,98.54
2022-11-14T09:03:43.406Z,97.93
2022-11-14T09:06:11.184Z,98.23
2022-11-14T09:08:39.101Z,98.22
2022-11-14T09:11:10.150Z,97.89
2022-11-14T09:13:38.265Z,98.42
2022-11-14T09:16:06.567Z,98.62
2022-11-14T09:18:34.282Z,98.72
2022-11-14T09:21:02.725Z,98.34
2022-11-14T09:23:30.856Z,98.19
2022-11-14T09:25:58.875Z,98.19
2022-11-14T09:28:27.943Z,98.52
2022-11-14T09:31:01.444Z,98.46
2022-11-14T09:33:29.538Z,98.42
2022-11-14T09:35:58.956Z,97.64
2022-11-14T09:38:27.207Z,97.97
2022-11-14T09:41:09.861Z,97.91
2022-11-14T09:44:06.582Z,97.91
2022-11-14T09:46:39.824Z,97.64
2022-11-14T09:49:12.736Z,97.51
2022-11-14T09:51:46.231Z,97.59
2022-11-14T09:54:18.466Z,97.53
2022-11-14T09:56:46.326Z,97.12
2022-11-14T09:59:15.917Z,96.05
2022-11-14T10:01:50.840Z,95.71
2022-11-14T10:04:27.789Z,93.59
2022-11-14T10:07:05.173Z,93.19
2022-11-14T10:09:49.263Z,92.03
2022-11-14T10:12:24.219Z,90.26
2022-11-14T10:15:08.270Z,90.16
2022-11-14T10:17:56.724Z,90.23
2022-11-14T10:20:34.651Z,89.97
2022-11-14T10:23:14.347Z,90.22
2022-11-14T10:25:54.154Z,89.21
2022-11-14T10:28:35.210Z,89.02
2022-11-14T10:31:11.294Z,88.76
2022-11-14T10:33:50.989Z,88.09
2022-11-14T10:36:29.124Z,87.66
2022-11-14T10:39:05.296Z,87.31
2022-11-14T10:41:56.237Z,87.15
2022-11-14T10:44:27.417Z,87.28
2022-11-14T10:46:59.998Z,86.64
2022-11-14T10:49:31.786Z,86.56
2022-11-14T10:52:02.947Z,86.12
2022-11-14T10:54:37.942Z,86.64
2022-11-14T10:57:16.568Z,86.22
2022-11-14T10:59:44.381Z,85.71
2022-11-14T11:02:13.439Z,85.03
2022-11-14T11:04:42.200Z,83.78
2022-11-14T11:07:40.679Z,83.94
2022-11-14T11:10:38.645Z,84.55
2022-11-14T11:13:06.567Z,84.84
2022-11-14T11:15:42.332Z,85.19
2022-11-14T11:18:27.955Z,87.06
2022-11-14T11:21:08.847Z,85.76
2022-11-14T11:23:37.694Z,85.96
2022-11-14T11:26:08.971Z,86.28
2022-11-14T11:28:37.980Z,86.95
2022-11-14T11:31:07.952Z,88.01
2022-11-14T11:33:38.869Z,87.60
2022-11-14T11:36:13.046Z,87.61
2022-11-14T11:38:41.737Z,88.52
2022-11-14T11:42:00.931Z,88.79
2022-11-14T11:44:16.610Z,89.67
2022-11-14T11:46:50.322Z,90.35
2022-11-14T11:49:24.801Z,90.16
2022-11-14T11:51:56.236Z,91.15
2022-11-14T11:54:28.081Z,90.91
2022-11-14T11:57:00.864Z,91.02
2022-11-14T11:59:36.200Z,91.95
2022-11-14T12:02:17.776Z,91.88
2022-11-14T12:04:47.000Z,92.05
2022-11-14T12:07:19.915Z,92.54
2022-11-14T12:10:09.788Z,92.40
2022-11-14T12:12:57.203Z,92.54
2022-11-14T12:15:34.309Z,92.19
2022-11-14T12:18:28.289Z,92.60
2022-11-14T12:21:13.430Z,92.35
2022-11-14T12:24:19.783Z,92.80
2022-11-14T12:26:59.966Z,92.68
2022-11-14T12:29:49.697Z,92.97
2022-11-14T12:32:20.562Z,92.79
2022-11-14T12:34:49.329Z,92.98
2022-11-14T12:37:23.030Z,92.73
2022-11-14T12:39:58.420Z,93.29
2022-11-14T12:42:26.292Z,93.15
2022-11-14T12:44:54.134Z,93.02
2022-11-14T12:47:23.986Z,93.20
2022-11-14T12:50:00.137Z,93.40
2022-11-14T12:52:54.035Z,93.33
2022-11-14T12:55:56.662Z,93.48
2022-11-14T12:58:55.328Z,93.06
2022-11-14T13:01:38.868Z,93.33
2022-11-14T13:04:24.845Z,93.52
2022-11-14T13:07:09.228Z,94.04
2022-11-14T13:09:54.693Z,93.64
2022-11-14T13:12:51.411Z,93.21
2022-11-14T13:15:48.580Z,92.05
2022-11-14T13:18:40.991Z,91.26
2022-11-14T13:21:42.272Z,90.88
2022-11-14T13:24:13.520Z,90.60
2022-11-14T13:26:50.974Z,90.36
2022-11-14T13:29:57.689Z,91.25
2022-11-14T13:33:02.148Z,91.00
2022-11-14T13:35:45.647Z,90.66
2022-11-14T13:38:35.080Z,90.92
2022-11-14T13:41:21.399Z,91.02
2022-11-14T13:44:03.680Z,90.04
2022-11-14T13:46:45.954Z,89.67
2022-11-14T13:49:34.214Z,89.59
2022-11-14T13:52:02.264Z,89.62
2022-11-14T13:54:30.146Z,90.29
2022-11-14T13:57:07.806Z,90.22
2022-11-14T13:59:52.319Z,89.88
2022-11-14T14:02:56.003Z,90.23
2022-11-14T14:05:33.464Z,90.66
2022-11-14T14:08:21.032Z,90.47
2022-11-14T14:11:00.054Z,90.54
2022-11-14T14:13:43.522Z,90.78
2022-11-14T14:16:19.334Z,90.37
2022-11-14T14:18:57.998Z,90.56
2022-11-14T14:21:37.025Z,90.85
2022-11-14T14:24:16.888Z,91.60
2022-11-14T14:26:58.661Z,92.52
2022-11-14T14:29:32.452Z,92.73
2022-11-14T14:32:13.517Z,93.09
2022-11-14T14:34:41.828Z,92.19
2022-11-14T14:37:20.472Z,92.44
2022-11-14T14:39:59.083Z,92.74
2022-11-14T14:42:32.193Z,92.85
2022-11-14T14:45:05.212Z,93.40
2022-11-14T14:47:41.423Z,93.30
2022-11-14T14:50:17.434Z,93.64
2022-11-14T14:52:45.472Z,94.07
2022-11-14T14:55:21.836Z,94.33
2022-11-14T14:57:49.805Z,94.83
2022-11-14T15:00:22.246Z,94.97
2022-11-14T15:02:51.571Z,95.16
2022-11-14T15:05:26.651Z,95.21
2022-11-14T15:07:58.137Z,95.46
2022-11-14T15:10:29.670Z,95.53
2022-11-14T15:12:58.791Z,95.47
2022-11-14T15:15:27.995Z,95.65
2022-11-14T15:17:58.689Z,96.22
2022-11-14T15:20:28.686Z,96.08
2022-11-14T15:23:07.063Z,96.37
2022-11-14T15:25:35.624Z,96.72
2022-11-14T15:28:03.960Z,96.64
2022-11-14T15:30:34.974Z,96.57
2022-11-14T15:33:07.287Z,96.55
2022-11-14T15:35:36.823Z,97.17
2022-11-14T15:38:36.727Z,97.20
2022-11-14T15:41:17.466Z,97.49
2022-11-14T15:43:50.461Z,97.36
2022-11-14T15:46:29.781Z,97.58
2022-11-14T15:48:59.005Z,98.08
2022-11-14T15:51:41.582Z,97.86
2022-11-14T15:54:24.580Z,97.81
2022-11-14T15:56:52.609Z,98.32
2022-11-14T15:59:20.496Z,98.10
2022-11-14T16:01:52.871Z,98.39
2022-11-14T16:04:24.114Z,98.71
2022-11-14T16:06:51.869Z,98.71
2022-11-14T16:09:22.102Z,98.64
2022-11-14T16:11:49.868Z,98.75
2022-11-14T16:14:17.564Z,99.05
2022-11-14T16:16:45.400Z,98.92
2022-11-14T16:19:15.285Z,98.90
2022-11-14T16:21:44.596Z,99.46
2022-11-14T16:24:17.212Z,99.57
2022-11-14T16:26:44.971Z,99.57
2022-11-14T16:29:12.854Z,99.89
2022-11-14T16:31:40.877Z,100.00
2022-11-14T16:34:13.610Z,99.96
2022-11-14T16:36:41.348Z,100.00
2022-11-14T16:39:13.444Z,100.00
2022-11-14T16:41:41.220Z,100.00
2022-11-14T16:44:15.047Z,100.00
2022-11-14T16:46:43.197Z,100.00
2022-11-14T16:49:15.079Z,100.00
2022-11-14T16:51:48.846Z,100.00
2022-11-14T16:54:19.312Z,100.00
2022-11-14T16:56:48.966Z,100.00
2022-11-14T16:59:16.752Z,100.00
2022-11-14T17:01:46.049Z,100.00
2022-11-14T17:04:14.108Z,100.00
2022-11-14T17:06:41.931Z,100.00
2022-11-14T17:09:12.662Z,100.00
2022-11-14T17:11:41.845Z,100.00
2022-11-14T17:14:09.590Z,100.00
2022-11-14T17:16:37.549Z,100.00
2022-11-14T17:19:05.898Z,100.00
2022-11-14T17:21:33.727Z,100.00
2022-11-14T17:24:02.749Z,100.00
2022-11-14T17:26:31.302Z,100.00
2022-11-14T17:29:00.981Z,100.00
2022-11-14T17:31:31.505Z,100.00
2022-11-14T17:34:03.027Z,100.00
2022-11-14T17:36:31.662Z,100.00
2022-11-14T17:38:59.692Z,100.00
2022-11-14T17:41:27.537Z,100.00
2022-11-14T17:43:58.941Z,100.00
2022-11-14T17:46:28.188Z,100.00
2022-11-14T17:48:56.039Z,100.00
2022-11-14T17:51:25.570Z,100.00
2022-11-14T17:53:53.780Z,100.00
2022-11-14T17:56:23.916Z,100.00
2022-11-14T17:58:53.616Z,100.00
2022-11-14T18:01:24.000Z,100.00
2022-11-14T18:03:53.269Z,100.00
2022-11-14T18:06:22.376Z,100.00
2022-11-14T18:08:50.287Z,100.00
2022-11-14T18:11:19.860Z,100.00
2022-11-14T18:13:48.009Z,100.00
2022-11-14T18:16:18.011Z,100.00
2022-11-14T18:18:45.879Z,100.00
2022-11-14T18:21:17.108Z,100.00
2022-11-14T18:23:45.332Z,100.00
2022-11-14T18:26:15.495Z,100.00
2022-11-14T18:28:44.153Z,100.00
2022-11-14T18:31:13.462Z,100.00
2022-11-14T18:33:42.566Z,100.00
2022-11-14T18:36:12.997Z,100.00
2022-11-14T18:38:44.140Z,100.00
2022-11-14T18:41:15.233Z,100.00
2022-11-14T18:43:44.418Z,100.00
2022-11-14T18:46:15.528Z,100.00
2022-11-14T18:48:45.880Z,100.00
2022-11-14T18:51:15.418Z,100.00
2022-11-14T18:53:44.638Z,100.00
2022-11-14T18:56:14.473Z,100.00
2022-11-14T18:58:43.844Z,100.00
2022-11-14T19:01:12.919Z,100.00
2022-11-14T19:03:41.065Z,100.00
2022-11-14T19:06:10.242Z,100.00
2022-11-14T19:08:38.068Z,100.00
2022-11-14T19:11:29.939Z,100.00
2022-11-14T19:13:58.004Z,100.00
2022-11-14T19:16:25.780Z,100.00
2022-11-14T19:18:53.610Z,100.00
2022-11-14T19:21:21.435Z,100.00
2022-11-14T19:23:50.510Z,100.00
2022-11-14T19:26:19.587Z,100.00
2022-11-14T19:28:47.936Z,100.00
2022-11-14T19:31:15.961Z,100.00
2022-11-14T19:33:45.261Z,100.00
2022-11-14T19:36:18.683Z,100.00
2022-11-14T19:38:49.043Z,100.00
2022-11-14T19:41:21.276Z,100.00
2022-11-14T19:43:50.463Z,100.00
2022-11-14T19:46:18.401Z,100.00
2022-11-14T19:48:46.209Z,100.00
2022-11-14T19:51:16.919Z,100.00
2022-11-14T19:53:46.171Z,100.00
2022-11-14T19:56:15.825Z,100.00
2022-11-14T19:58:46.564Z,100.00
2022-11-14T20:01:16.549Z,100.00
2022-11-14T20:03:44.568Z,100.00
2022-11-14T20:06:17.345Z,100.00
2022-11-14T20:08:45.402Z,100.00
2022-11-14T20:11:13.265Z,100.00
2022-11-14T20:13:44.091Z,100.00
2022-11-14T20:16:14.971Z,100.00
2022-11-14T20:18:45.608Z,100.00
2022-11-14T20:21:15.386Z,100.00
2022-11-14T20:23:43.314Z,100.00
2022-11-14T20:26:11.911Z,100.00
2022-11-14T20:28:40.283Z,100.00
2022-11-14T20:31:12.716Z,100.00
2022-11-14T20:33:44.671Z,100.00
2022-11-14T20:36:15.090Z,100.00
2022-11-14T20:38:44.201Z,100.00
2022-11-14T20:41:13.479Z,100.00
2022-11-14T20:43:41.852Z,100.00
2022-11-14T20:46:13.722Z,100.00
2022-11-14T20:48:43.669Z,100.00
2022-11-14T20:51:13.883Z,100.00
2022-11-14T20:53:42.355Z,100.00
2022-11-14T20:56:11.611Z,100.00
2022-11-14T20:58:41.664Z,100.00
2022-11-14T21:01:09.661Z,100.00
2022-11-14T21:03:38.041Z,100.00
2022-11-14T21:06:10.999Z,100.00
2022-11-14T21:08:38.825Z,100.00
2022-11-14T21:11:08.618Z,100.00
2022-11-14T21:13:55.052Z,100.00
2022-11-14T21:16:24.366Z,100.00
2022-11-14T21:18:54.595Z,100.00
2022-11-14T21:21:27.323Z,100.00
2022-11-14T21:23:55.694Z,100.00
2022-11-14T21:26:25.133Z,100.00
2022-11-14T21:28:55.476Z,100.00
2022-11-14T21:31:25.421Z,100.00
2022-11-14T21:33:56.617Z,100.00
2022-11-14T21:39:15.321Z,100.00
2022-11-14T21:41:44.072Z,100.00
2022-11-14T21:44:13.439Z,100.00
2022-11-14T21:46:41.611Z,100.00
2022-11-14T21:49:10.099Z,100.00
2022-11-14T21:51:39.228Z,100.00
2022-11-14T21:54:07.062Z,100.00
2022-11-14T21:56:36.994Z,100.00
2022-11-14T21:59:15.143Z,100.00
2022-11-14T22:02:02.715Z,100.00
2022-11-14T22:04:31.343Z,100.00
2022-11-14T22:07:02.255Z,100.00
2022-11-14T22:09:30.790Z,100.00
2022-11-14T22:11:59.239Z,100.00
2022-11-14T22:14:27.441Z,100.00
2022-11-14T22:16:55.134Z,100.00
2022-11-14T22:19:23.315Z,100.00
2022-11-14T22:21:51.307Z,100.00
2022-11-14T22:24:20.374Z,100.00
2022-11-14T22:26:48.045Z,100.00
2022-11-14T22:29:15.844Z,100.00
2022-11-14T22:31:43.512Z,100.00
2022-11-14T22:34:12.388Z,100.00
2022-11-14T22:36:40.152Z,100.00
2022-11-14T22:39:07.848Z,100.00
2022-11-14T22:41:36.839Z,100.00
2022-11-14T22:44:04.598Z,100.00
2022-11-14T22:46:32.339Z,100.00
2022-11-14T22:49:00.310Z,100.00
2022-11-14T22:51:29.085Z,100.00
2022-11-14T22:53:58.411Z,100.00
2022-11-14T22:56:28.047Z,100.00
2022-11-14T22:58:59.279Z,100.00
2022-11-14T23:01:28.874Z,100.00
2022-11-14T23:03:58.111Z,100.00
2022-11-14T23:06:26.674Z,100.00
2022-11-14T23:08:55.135Z,100.00
2022-11-14T23:11:24.986Z,100.00
2022-11-14T23:13:54.209Z,100.00
2022-11-14T23:16:25.080Z,100.00
2022-11-14T23:18:54.847Z,100.00
2022-11-14T23:21:24.222Z,100.00
2022-11-14T23:23:53.850Z,100.00
2022-11-14T23:26:21.865Z,100.00
2022-11-14T23:28:50.283Z,100.00
2022-11-14T23:31:19.344Z,100.00
2022-11-14T23:33:49.273Z,100.00
2022-11-14T23:36:17.377Z,100.00
2022-11-14T23:38:45.288Z,100.00
2022-11-14T23:41:17.697Z,100.00
2022-11-14T23:43:45.548Z,100.00
2022-11-14T23:46:13.550Z,100.00
2022-11-14T23:48:41.827Z,100.00
2022-11-14T23:51:10.913Z,100.00
2022-11-14T23:53:38.728Z,100.00
2022-11-14T23:56:06.786Z,100.00
2022-11-14T23:58:34.479Z,100.00
